createdAt,value
2024-01-17T00:00:10.911Z,98008.47
2024-01-17T00:01:10.488Z,98007.84
2024-01-17T00:02:10.474Z,98016.33
2024-01-17T00:03:10.635Z,98018.98
2024-01-17T00:04:10.518Z,98026.72
2024-01-17T00:05:10.517Z,98019
2024-01-17T00:06:10.562Z,98024.77
2024-01-17T00:07:10.690Z,98025.27
2024-01-17T00:08:10.619Z,98027.89
2024-01-17T00:09:10.647Z,98028.48
2024-01-17T00:10:10.678Z,98031.75
2024-01-17T00:11:11.041Z,98033.4
2024-01-17T00:12:10.721Z,98031.66
2024-01-17T00:13:10.602Z,98024.83
2024-01-17T00:14:11.053Z,98028.71
2024-01-17T00:15:10.848Z,98025.09
2024-01-17T00:16:10.668Z,98032.82
2024-01-17T00:17:10.705Z,98029.74
2024-01-17T00:18:10.825Z,98027.19
2024-01-17T00:19:10.888Z,98025.77
2024-01-17T00:20:11.116Z,98028.47
2024-01-17T00:21:10.816Z,98026.05
2024-01-17T00:22:10.766Z,98022.74
2024-01-17T00:23:10.792Z,98027.83
2024-01-17T00:24:10.843Z,98027.94
2024-01-17T00:25:10.892Z,98027.73
2024-01-17T00:26:10.883Z,98028.42
2024-01-17T00:27:10.850Z,98027.39
2024-01-17T00:28:10.873Z,98030.16
2024-01-17T00:29:10.873Z,98025.7
2024-01-17T00:30:11.405Z,98031.31
2024-01-17T00:31:11.008Z,98030.73
2024-01-17T00:32:10.933Z,98025.48
2024-01-17T00:33:11.098Z,98041.02
2024-01-17T00:34:11.120Z,98039.92
2024-01-17T00:35:11.197Z,98044.56
2024-01-17T00:36:11.217Z,98048.16
2024-01-17T00:37:10.996Z,98048.41
2024-01-17T00:38:11.003Z,98051.55
2024-01-17T00:39:11.674Z,98052.87
2024-01-17T00:40:11.702Z,98049.45
2024-01-17T00:41:11.729Z,98053.31
2024-01-17T00:42:11.744Z,98055.44
2024-01-17T00:43:11.725Z,98056.86
2024-01-17T00:44:11.948Z,98060.93
2024-01-17T00:45:11.980Z,98059.75
2024-01-17T00:46:12.141Z,98059.85
2024-01-17T00:47:13.021Z,98063.23
2024-01-17T00:48:11.875Z,98053.84
2024-01-17T00:49:12.121Z,98062.12
2024-01-17T00:50:11.852Z,98060.02
2024-01-17T00:51:21.643Z,98059.81
2024-01-17T00:52:12.839Z,98045.55
2024-01-17T00:53:12.884Z,98049.36
2024-01-17T00:54:12.883Z,98050.67
2024-01-17T00:55:12.951Z,98051.9
2024-01-17T00:56:12.903Z,98052.72
2024-01-17T00:57:12.947Z,98048.27
2024-01-17T00:58:12.916Z,98047.34
2024-01-17T00:59:12.946Z,98046.51
2024-01-17T01:00:13.458Z,98044.45
2024-01-17T01:01:12.987Z,98040.69
2024-01-17T01:02:13.042Z,98035.02
2024-01-17T01:03:13.091Z,98038.47
2024-01-17T01:04:13.133Z,98036.66
2024-01-17T01:06:13.318Z,98043.27
2024-01-17T01:07:13.151Z,98044.73
2024-01-17T01:08:13.448Z,98037.12
2024-01-17T01:09:13.171Z,98042.88
2024-01-17T01:10:13.255Z,98034.72
2024-01-17T01:11:13.154Z,98032.72
2024-01-17T01:12:13.316Z,98035.58
2024-01-17T01:13:13.208Z,98030.98
2024-01-17T01:14:13.194Z,98030.38
2024-01-17T01:15:13.298Z,98032.25
2024-01-17T01:16:13.233Z,98027.12
2024-01-17T01:17:13.244Z,98030.81
2024-01-17T01:18:13.488Z,98023.72
2024-01-17T01:19:13.356Z,98024.02
2024-01-17T01:20:13.356Z,98022.48
2024-01-17T01:21:13.334Z,98028.89
2024-01-17T01:22:13.338Z,98029.84
2024-01-17T01:23:13.344Z,98032.78
2024-01-17T01:24:13.418Z,98041.16
2024-01-17T01:25:13.422Z,98041.36
2024-01-17T01:26:13.391Z,98035.72
2024-01-17T01:27:13.420Z,98038.69
2024-01-17T01:28:13.458Z,98036.88
2024-01-17T01:29:13.465Z,98036.36
2024-01-17T01:30:13.691Z,98036.06
2024-01-17T01:31:13.516Z,98025.11
2024-01-17T01:32:13.607Z,98024.27
2024-01-17T01:33:13.627Z,98028.05
2024-01-17T01:34:16.418Z,98028.92
2024-01-17T01:35:13.789Z,98031.16
2024-01-17T01:36:13.753Z,98027.22
2024-01-17T01:37:13.769Z,98020.53
2024-01-17T01:38:13.754Z,98020.91
2024-01-17T01:39:13.860Z,98030.19
2024-01-17T01:40:13.876Z,98033.97
2024-01-17T01:41:13.828Z,98037.05
2024-01-17T01:42:13.844Z,98039
2024-01-17T01:43:20.538Z,98042.77
2024-01-17T01:44:16.778Z,98034
2024-01-17T01:45:17.986Z,98040.45
2024-01-17T01:46:21.867Z,98044.14
2024-01-17T01:47:18.348Z,98038.01
2024-01-17T01:48:18.206Z,98034.84
2024-01-17T01:49:18.470Z,98037.28
2024-01-17T01:50:18.324Z,98033.5
2024-01-17T01:51:18.463Z,98039.31
2024-01-17T01:52:18.648Z,98037.11
2024-01-17T01:53:18.220Z,98033.11
2024-01-17T01:54:20.973Z,98031.03
2024-01-17T01:55:18.215Z,98032
2024-01-17T01:56:20.817Z,98030.34
2024-01-17T01:57:18.551Z,98036.95
2024-01-17T01:58:18.258Z,98032.17
2024-01-17T01:59:20.471Z,98034.02
2024-01-17T02:00:18.446Z,98029.5
2024-01-17T02:01:18.613Z,98034.85
2024-01-17T02:02:18.616Z,98037.83
2024-01-17T02:03:18.645Z,98032.95
2024-01-17T02:04:18.780Z,98034.32
2024-01-17T02:05:18.557Z,98030
2024-01-17T02:06:19.133Z,98034.56
2024-01-17T02:07:19.794Z,98036.58
2024-01-17T02:08:18.795Z,98042.45
2024-01-17T02:09:18.443Z,98039.8
2024-01-17T02:10:19.016Z,98038.56
2024-01-17T02:11:19.483Z,98038.72
2024-01-17T02:12:19.011Z,98041.69
2024-01-17T02:13:18.586Z,98048.11
2024-01-17T02:14:18.682Z,98043.94
2024-01-17T02:15:18.534Z,98044.12
2024-01-17T02:16:19.113Z,98042.93
2024-01-17T02:17:18.547Z,98047.55
2024-01-17T02:18:18.774Z,98054.05
2024-01-17T02:19:18.678Z,98050.24
2024-01-17T02:20:18.646Z,98047.98
2024-01-17T02:21:18.838Z,98053.86
2024-01-17T02:22:18.630Z,98050.91
2024-01-17T02:24:22.956Z,98054.53
2024-01-17T02:25:23.262Z,98054.08
2024-01-17T02:26:23.003Z,98056.77
2024-01-17T02:27:23.015Z,98050.96
2024-01-17T02:28:23.401Z,98053.32
2024-01-17T02:29:23.102Z,98058.24
2024-01-17T02:30:23.424Z,98058.25
2024-01-17T02:31:23.278Z,98062.05
2024-01-17T02:32:23.533Z,98064.66
2024-01-17T02:33:23.407Z,98067.96
2024-01-17T02:34:23.389Z,98069.45
2024-01-17T02:35:23.301Z,98079.42
2024-01-17T02:36:23.152Z,98077.55
2024-01-17T02:37:23.143Z,98075.11
2024-01-17T02:38:23.154Z,98075.38
2024-01-17T02:39:23.190Z,98084
2024-01-17T02:40:23.159Z,98086.03
2024-01-17T02:41:23.217Z,98086.43
2024-01-17T02:42:23.187Z,98086.88
2024-01-17T02:43:23.244Z,98087.52
2024-01-17T02:44:23.222Z,98090.89
2024-01-17T02:45:23.230Z,98092.33
2024-01-17T02:46:26.536Z,98092.41
2024-01-17T02:47:23.261Z,98093.06
2024-01-17T02:48:23.371Z,98095.33
2024-01-17T02:49:23.544Z,98099.12
2024-01-17T02:50:23.682Z,98100.14
2024-01-17T02:51:23.367Z,98110.61
2024-01-17T02:52:23.363Z,98102.31
2024-01-17T02:53:23.352Z,98106.94
2024-01-17T02:54:23.312Z,98103.39
2024-01-17T02:55:23.403Z,98107.04
2024-01-17T02:56:23.409Z,98105.38
2024-01-17T02:57:23.441Z,98102.56
2024-01-17T02:58:23.465Z,98103.7
2024-01-17T02:59:23.377Z,98102.35
2024-01-17T03:00:23.524Z,98101.3
2024-01-17T03:01:23.458Z,98100.64
2024-01-17T03:02:23.565Z,98092.39
2024-01-17T03:03:23.465Z,98094.81
2024-01-17T03:04:23.514Z,98089.06
2024-01-17T03:05:28.541Z,98088.11
2024-01-17T03:06:25.258Z,98088.8
2024-01-17T03:07:25.179Z,98093.49
2024-01-17T03:08:25.391Z,98083.2
2024-01-17T03:09:25.286Z,98086.56
2024-01-17T03:10:25.285Z,98086.06
2024-01-17T03:11:25.291Z,98084.36
2024-01-17T03:12:25.260Z,98077.25
2024-01-17T03:13:25.270Z,98076.3
2024-01-17T03:14:25.364Z,98074.84
2024-01-17T03:15:25.489Z,98070.02
2024-01-17T03:16:25.337Z,98063.02
2024-01-17T03:17:25.384Z,98060.92
2024-01-17T03:18:25.489Z,98054.58
2024-01-17T03:19:25.633Z,98056.58
2024-01-17T03:20:25.433Z,98053.91
2024-01-17T03:21:25.418Z,98053.14
2024-01-17T03:22:25.425Z,98047.23
2024-01-17T03:23:25.447Z,98040.3
2024-01-17T03:24:25.460Z,98036.06
2024-01-17T03:25:25.552Z,98036.51
2024-01-17T03:26:25.445Z,98040.34
2024-01-17T03:27:25.475Z,98037.86
2024-01-17T03:28:25.481Z,98042.02
2024-01-17T03:29:25.580Z,98045.03
2024-01-17T03:30:25.639Z,98041.18
2024-01-17T03:31:25.528Z,98041.48
2024-01-17T03:32:25.631Z,98033.83
2024-01-17T03:33:25.642Z,98039.48
2024-01-17T03:34:25.586Z,98042.66
2024-01-17T03:35:25.630Z,98040.89
2024-01-17T03:36:25.596Z,98041.69
2024-01-17T03:37:25.591Z,98045.7
2024-01-17T03:38:25.648Z,98053.73
2024-01-17T03:39:25.617Z,98044.23
2024-01-17T03:40:25.694Z,98056.9
2024-01-17T03:41:25.723Z,98047.85
2024-01-17T03:42:25.677Z,98058.18
2024-01-17T03:43:25.688Z,98053.98
2024-01-17T03:44:25.790Z,98053.66
2024-01-17T03:45:25.755Z,98053.89
2024-01-17T03:46:25.723Z,98051.88
2024-01-17T03:47:25.869Z,98052.72
2024-01-17T03:48:25.880Z,98049.31
2024-01-17T03:49:25.804Z,98049.81
2024-01-17T03:50:25.898Z,98046.09
2024-01-17T03:51:25.784Z,98047.27
2024-01-17T03:52:25.823Z,98046.47
2024-01-17T03:53:25.835Z,98047.78
2024-01-17T03:54:25.808Z,98047.21
2024-01-17T03:55:25.960Z,98051.39
2024-01-17T03:56:25.941Z,98057.26
2024-01-17T03:57:25.863Z,98054.4
2024-01-17T03:58:26.068Z,98055.12
2024-01-17T03:59:25.927Z,98049.38
2024-01-17T04:00:25.977Z,98056.42
2024-01-17T04:01:25.981Z,98049.76
2024-01-17T04:02:25.929Z,98060.3
2024-01-17T04:03:25.959Z,98052
2024-01-17T04:04:26.062Z,98056.68
2024-01-17T04:05:26.056Z,98058.27
2024-01-17T04:06:26.012Z,98063.08
2024-01-17T04:07:26.186Z,98060.12
2024-01-17T04:08:26.071Z,98063.48
2024-01-17T04:09:26.449Z,98065.52
2024-01-17T04:10:26.107Z,98063.41
2024-01-17T04:11:26.231Z,98063.56
2024-01-17T04:12:26.144Z,98063.5
2024-01-17T04:13:26.252Z,98069.77
2024-01-17T04:14:26.135Z,98063.07
2024-01-17T04:15:26.150Z,98062.74
2024-01-17T04:16:26.081Z,98066.68
2024-01-17T04:17:26.176Z,98067.09
2024-01-17T04:18:26.316Z,98062.33
2024-01-17T04:19:26.235Z,98053.92
2024-01-17T04:20:26.192Z,98054.2
2024-01-17T04:21:26.277Z,98060
2024-01-17T04:22:26.217Z,98061.08
2024-01-17T04:23:26.258Z,98048.16
2024-01-17T04:24:26.248Z,98057.73
2024-01-17T04:25:26.340Z,98056.09
2024-01-17T04:26:26.998Z,98057.14
2024-01-17T04:27:26.266Z,98061.11
2024-01-17T04:28:26.378Z,98061.35
2024-01-17T04:29:26.270Z,98061.41
2024-01-17T04:30:26.360Z,98065.18
2024-01-17T04:31:26.916Z,98059.19
2024-01-17T04:32:27.081Z,98065.23
2024-01-17T04:33:26.417Z,98069.79
2024-01-17T04:34:26.431Z,98069.09
2024-01-17T04:35:26.383Z,98068.69
2024-01-17T04:36:27.773Z,98076.39
2024-01-17T04:37:26.396Z,98083.94
2024-01-17T04:38:26.420Z,98076.5
2024-01-17T04:39:26.376Z,98075.94
2024-01-17T04:40:26.419Z,98080.83
2024-01-17T04:41:26.593Z,98077.84
2024-01-17T04:42:26.481Z,98086.38
2024-01-17T04:43:26.550Z,98085.58
2024-01-17T04:44:26.446Z,98084.11
2024-01-17T04:45:26.508Z,98085.42
2024-01-17T04:46:26.412Z,98086.7
2024-01-17T04:47:26.643Z,98086.39
2024-01-17T04:48:26.737Z,98086.67
2024-01-17T04:49:26.796Z,98088.66
2024-01-17T04:50:26.635Z,98090.21
2024-01-17T04:51:26.579Z,98090.87
2024-01-17T04:52:26.586Z,98092.43
2024-01-17T04:53:26.680Z,98096.39
2024-01-17T04:54:26.771Z,98104.05
2024-01-17T04:55:26.605Z,98099.33
2024-01-17T04:56:26.608Z,98101.22
2024-01-17T04:57:26.578Z,98104.47
2024-01-17T04:58:27.071Z,98098.64
2024-01-17T04:59:26.802Z,98107.34
2024-01-17T05:00:26.712Z,98103.84
2024-01-17T05:01:26.659Z,98097.52
2024-01-17T05:02:26.674Z,98098.25
2024-01-17T05:03:27.383Z,98093.45
2024-01-17T05:04:26.749Z,98094.66
2024-01-17T05:05:26.805Z,98098.64
2024-01-17T05:06:26.948Z,98094.49
2024-01-17T05:07:26.793Z,98084.95
2024-01-17T05:08:26.845Z,98089.89
2024-01-17T05:09:26.798Z,98094.45
2024-01-17T05:10:26.816Z,98093.51
2024-01-17T05:11:27.093Z,98091.31
2024-01-17T05:12:26.828Z,98099.28
2024-01-17T05:13:26.997Z,98102.74
2024-01-17T05:14:26.885Z,98098.36
2024-01-17T05:15:26.883Z,98102.95
2024-01-17T05:16:26.915Z,98107.16
2024-01-17T05:17:27.003Z,98105.34
2024-01-17T05:18:26.960Z,98109.88
2024-01-17T05:19:27.218Z,98106.79
2024-01-17T05:20:26.944Z,98101.89
2024-01-17T05:21:26.973Z,98112
2024-01-17T05:22:26.975Z,98111
2024-01-17T05:23:27.002Z,98106.11
2024-01-17T05:24:28.634Z,98107.31
2024-01-17T05:25:27.476Z,98112.2
2024-01-17T05:26:27.034Z,98109.29
2024-01-17T05:27:27.044Z,98108.02
2024-01-17T05:28:27.025Z,98113.09
2024-01-17T05:29:27.079Z,98114.74
2024-01-17T05:30:27.211Z,98116.62
2024-01-17T05:31:27.207Z,98108.84
2024-01-17T05:32:27.086Z,98117.48
2024-01-17T05:33:27.195Z,98118.83
2024-01-17T05:34:27.166Z,98128.61
2024-01-17T05:35:27.144Z,98115.98
2024-01-17T05:36:29.324Z,98121.3
2024-01-17T05:37:27.892Z,98121.16
2024-01-17T05:38:27.777Z,98124.48
2024-01-17T05:39:27.919Z,98124.03
2024-01-17T05:40:27.851Z,98125.27
2024-01-17T05:41:27.964Z,98124.31
2024-01-17T05:42:27.819Z,98129.27
2024-01-17T05:43:27.890Z,98131.83
2024-01-17T05:44:27.854Z,98132.44
2024-01-17T05:45:28.009Z,98128.64
2024-01-17T05:46:27.993Z,98133.88
2024-01-17T05:47:27.922Z,98132.48
2024-01-17T05:48:28.098Z,98143.79
2024-01-17T05:49:27.996Z,98143.73
2024-01-17T05:50:28.069Z,98137.42
2024-01-17T05:51:27.994Z,98141.56
2024-01-17T05:52:28.019Z,98137.86
2024-01-17T05:53:28.115Z,98140.5
2024-01-17T05:54:27.990Z,98137.12
2024-01-17T05:55:28.085Z,98137.88
2024-01-17T05:56:28.082Z,98140.45
2024-01-17T05:57:28.027Z,98139.98
2024-01-17T05:58:28.069Z,98146.34
2024-01-17T05:59:28.048Z,98154.06
2024-01-17T06:00:28.298Z,98153.7
2024-01-17T06:01:28.112Z,98158.59
2024-01-17T06:02:28.193Z,98155.97
2024-01-17T06:03:28.514Z,98160.53
2024-01-17T06:04:28.315Z,98171.02
2024-01-17T06:05:28.254Z,98173.73
2024-01-17T06:06:28.234Z,98175.84
2024-01-17T06:07:28.254Z,98183.32
2024-01-17T06:08:28.279Z,98188.81
2024-01-17T06:09:28.654Z,98192.32
2024-01-17T06:10:28.257Z,98185.8
2024-01-17T06:11:28.325Z,98191.45
2024-01-17T06:12:28.311Z,98198.16
2024-01-17T06:13:28.281Z,98196.38
2024-01-17T06:14:28.341Z,98202.89
2024-01-17T06:15:28.277Z,98199.98
2024-01-17T06:16:28.343Z,98206.53
2024-01-17T06:17:28.442Z,98205.77
2024-01-17T06:18:28.457Z,98208.88
2024-01-17T06:19:28.382Z,98205.34
2024-01-17T06:20:28.350Z,98205.67
2024-01-17T06:21:30.849Z,98210.62
2024-01-17T06:22:28.415Z,98209.8
2024-01-17T06:23:28.472Z,98209.16
2024-01-17T06:24:28.481Z,98209.94
2024-01-17T06:25:28.605Z,98207.8
2024-01-17T06:26:28.489Z,98214.77
2024-01-17T06:27:28.655Z,98204.95
2024-01-17T06:28:28.516Z,98207.41
2024-01-17T06:29:28.743Z,98213.73
2024-01-17T06:30:28.680Z,98209.76
2024-01-17T06:31:28.494Z,98212.45
2024-01-17T06:32:28.798Z,98211.52
2024-01-17T06:33:28.593Z,98212.61
2024-01-17T06:34:28.612Z,98217.34
2024-01-17T06:35:28.644Z,98217.12
2024-01-17T06:36:28.597Z,98213.33
2024-01-17T06:37:28.623Z,98215.05
2024-01-17T06:38:28.951Z,98214.55
2024-01-17T06:39:28.636Z,98209.26
2024-01-17T06:40:28.662Z,98209.82
2024-01-17T06:41:28.738Z,98210.06
2024-01-17T06:42:28.727Z,98209.55
2024-01-17T06:43:28.699Z,98209.59
2024-01-17T06:44:28.985Z,98206.19
2024-01-17T06:45:28.698Z,98204.34
2024-01-17T06:46:29.760Z,98214.06
2024-01-17T06:47:28.748Z,98216.75
2024-01-17T06:48:28.984Z,98211.03
2024-01-17T06:49:28.973Z,98214.11
2024-01-17T06:50:28.814Z,98209.57
2024-01-17T06:51:28.775Z,98215.25
2024-01-17T06:52:28.813Z,98212.02
2024-01-17T06:53:28.874Z,98211.55
2024-01-17T06:54:28.892Z,98209.37
2024-01-17T06:55:28.870Z,98208.27
2024-01-17T06:56:28.934Z,98210.36
2024-01-17T06:57:29.129Z,98207.66
2024-01-17T06:58:28.890Z,98203.78
2024-01-17T06:59:29.032Z,98203.51
2024-01-17T07:00:30.087Z,98206.65
2024-01-17T07:01:29.352Z,98207.55
2024-01-17T07:02:29.567Z,98208.69
2024-01-17T07:03:29.477Z,98214.38
2024-01-17T07:04:29.569Z,98207.7
2024-01-17T07:05:29.436Z,98208.06
2024-01-17T07:06:29.619Z,98207.85
2024-01-17T07:07:29.474Z,98215.66
2024-01-17T07:08:29.597Z,98211.36
2024-01-17T07:09:29.543Z,98209.78
2024-01-17T07:10:29.643Z,98212.45
2024-01-17T07:11:29.590Z,98208.7
2024-01-17T07:12:29.682Z,98207.2
2024-01-17T07:13:30.038Z,98203.18
2024-01-17T07:14:30.023Z,98205.06
2024-01-17T07:15:30.128Z,98206.14
2024-01-17T07:16:30.492Z,98213.2
2024-01-17T07:17:30.165Z,98213.01
2024-01-17T07:18:30.107Z,98211.34
2024-01-17T07:19:30.120Z,98216.87
2024-01-17T07:20:30.228Z,98217.2
2024-01-17T07:21:30.168Z,98221
2024-01-17T07:22:30.124Z,98224.16
2024-01-17T07:23:30.179Z,98217.64
2024-01-17T07:24:30.260Z,98218.63
2024-01-17T07:25:30.328Z,98221.92
2024-01-17T07:26:30.172Z,98217.04
2024-01-17T07:27:30.186Z,98220.61
2024-01-17T07:28:30.366Z,98220.86
2024-01-17T07:29:30.304Z,98220.77
2024-01-17T07:30:30.349Z,98218.12
2024-01-17T07:31:30.292Z,98219.52
2024-01-17T07:32:30.524Z,98216.41
2024-01-17T07:33:30.471Z,98214.17
2024-01-17T07:34:30.641Z,98213.2
2024-01-17T07:35:30.441Z,98215.78
2024-01-17T07:36:30.378Z,98213.67
2024-01-17T07:37:30.393Z,98213.42
2024-01-17T07:38:30.517Z,98209.55
2024-01-17T07:39:30.424Z,98211.7
2024-01-17T07:40:30.454Z,98203.88
2024-01-17T07:41:30.779Z,98204.83
2024-01-17T07:42:30.565Z,98212.31
2024-01-17T07:43:30.446Z,98207.17
2024-01-17T07:44:30.626Z,98203.66
2024-01-17T07:45:30.497Z,98198.25
2024-01-17T07:46:30.589Z,98204.16
2024-01-17T07:47:30.834Z,98201.09
2024-01-17T07:48:31.401Z,98192.91
2024-01-17T07:49:31.163Z,98198.58
2024-01-17T07:50:31.031Z,98198.52
2024-01-17T07:51:31.118Z,98206.8
2024-01-17T07:52:31.251Z,98205.3
2024-01-17T07:53:31.255Z,98208.56
2024-01-17T07:54:31.309Z,98213.59
2024-01-17T07:55:31.154Z,98212.62
2024-01-17T07:56:31.262Z,98211.15
2024-01-17T07:57:31.130Z,98204.03
2024-01-17T07:58:31.291Z,98207.19
2024-01-17T07:59:31.546Z,98206.31
2024-01-17T08:00:31.260Z,98209.14
2024-01-17T08:01:31.268Z,98209.48
2024-01-17T08:02:31.343Z,98210.47
2024-01-17T08:03:31.909Z,98211.22
2024-01-17T08:04:31.294Z,98212.77
2024-01-17T08:05:31.357Z,98205.05
2024-01-17T08:06:31.554Z,98203.87
2024-01-17T08:07:31.951Z,98195.27
2024-01-17T08:08:31.450Z,98198
2024-01-17T08:09:32.206Z,98203.66
2024-01-17T08:10:31.361Z,98204.78
2024-01-17T08:11:31.322Z,98202.66
2024-01-17T08:12:31.397Z,98209.81
2024-01-17T08:13:31.354Z,98205.63
2024-01-17T08:14:31.389Z,98207.13
2024-01-17T08:15:31.557Z,98203.12
2024-01-17T08:16:31.442Z,98206.23
2024-01-17T08:17:31.874Z,98207.03
2024-01-17T08:18:31.531Z,98209.86
2024-01-17T08:19:31.659Z,98210.86
2024-01-17T08:20:31.557Z,98206.15
2024-01-17T08:21:31.644Z,98211.38
2024-01-17T08:22:31.571Z,98221.59
2024-01-17T08:23:31.552Z,98211.38
2024-01-17T08:24:32.241Z,98211.88
2024-01-17T08:25:32.336Z,98217.16
2024-01-17T08:26:31.665Z,98213.59
2024-01-17T08:27:31.605Z,98210.17
2024-01-17T08:28:31.652Z,98214.23
2024-01-17T08:29:31.664Z,98214.84
2024-01-17T08:30:31.701Z,98210.83
2024-01-17T08:31:31.654Z,98213.94
2024-01-17T08:32:31.890Z,98214.77
2024-01-17T08:33:32.468Z,98218.73
2024-01-17T08:34:31.686Z,98217.98
2024-01-17T08:35:31.930Z,98224.47
2024-01-17T08:36:31.949Z,98222.77
2024-01-17T08:37:31.748Z,98227.66
2024-01-17T08:38:31.865Z,98221.84
2024-01-17T08:39:31.829Z,98228.48
2024-01-17T08:40:34.465Z,98224.14
2024-01-17T08:41:31.940Z,98229.61
2024-01-17T08:42:31.905Z,98229.64
2024-01-17T08:43:31.901Z,98232.08
2024-01-17T08:44:32.256Z,98235.47
2024-01-17T08:45:31.921Z,98234.72
2024-01-17T08:46:31.947Z,98240.06
2024-01-17T08:47:32.116Z,98241.38
2024-01-17T08:48:32.048Z,98237.81
2024-01-17T08:49:32.125Z,98238.47
2024-01-17T08:50:32.039Z,98241.99
2024-01-17T08:51:32.729Z,98245.3
2024-01-17T08:52:32.200Z,98244.16
2024-01-17T08:53:32.148Z,98237.53
2024-01-17T08:54:32.114Z,98239.38
2024-01-17T08:55:32.141Z,98238.11
2024-01-17T08:56:32.446Z,98241.38
2024-01-17T08:57:32.116Z,98241.13
2024-01-17T08:58:32.823Z,98240.16
2024-01-17T08:59:34.751Z,98243.53
2024-01-17T09:00:32.301Z,98243.4
2024-01-17T09:01:32.214Z,98252.36
2024-01-17T09:02:32.385Z,98254.53
2024-01-17T09:03:32.336Z,98248.11
2024-01-17T09:04:32.895Z,98252.33
2024-01-17T09:05:32.479Z,98246.34
2024-01-17T09:06:32.337Z,98254.74
2024-01-17T09:07:33.749Z,98258.83
2024-01-17T09:08:32.463Z,98262.84
2024-01-17T09:09:32.413Z,98270.86
2024-01-17T09:10:32.356Z,98262.26
2024-01-17T09:11:32.639Z,98263.7
2024-01-17T09:12:32.366Z,98264.42
2024-01-17T09:13:32.875Z,98263.47
2024-01-17T09:14:32.546Z,98261.14
2024-01-17T09:15:32.451Z,98267.89
2024-01-17T09:16:32.588Z,98270.53
2024-01-17T09:17:32.909Z,98276.55
2024-01-17T09:18:32.554Z,98281.86
2024-01-17T09:19:33.624Z,98280.44
2024-01-17T09:20:32.504Z,98279.23
2024-01-17T09:21:32.456Z,98282.55
2024-01-17T09:22:32.670Z,98281.84
2024-01-17T09:23:32.569Z,98279.33
2024-01-17T09:24:32.547Z,98286.39
2024-01-17T09:25:32.607Z,98285.63
2024-01-17T09:26:33.364Z,98284.44
2024-01-17T09:27:32.642Z,98282.56
2024-01-17T09:28:32.699Z,98290.49
2024-01-17T09:29:33.337Z,98290.09
2024-01-17T09:30:32.771Z,98291.19
2024-01-17T09:31:32.663Z,98292.2
2024-01-17T09:32:32.738Z,98298.72
2024-01-17T09:33:32.810Z,98297.79
2024-01-17T09:34:32.991Z,98294.93
2024-01-17T09:35:33.456Z,98304.54
2024-01-17T09:36:32.706Z,98312
2024-01-17T09:37:32.691Z,98318.58
2024-01-17T09:38:33.298Z,98317.45
2024-01-17T09:39:33.269Z,98318.61
2024-01-17T09:40:33.500Z,98322.38
2024-01-17T09:41:33.373Z,98319.71
2024-01-17T09:42:33.613Z,98320.98
2024-01-17T09:43:33.350Z,98330.28
2024-01-17T09:44:36.238Z,98330.78
2024-01-17T09:45:34.038Z,98334.53
2024-01-17T09:46:34.871Z,98336
2024-01-17T09:47:35.256Z,98344.8
2024-01-17T09:48:33.879Z,98338.08
2024-01-17T09:49:33.791Z,98339.2
2024-01-17T09:50:33.672Z,98341.45
2024-01-17T09:51:33.876Z,98340.26
2024-01-17T09:52:33.974Z,98342.56
2024-01-17T09:53:34.827Z,98339.22
2024-01-17T09:54:42.823Z,98333.49
2024-01-17T09:55:37.356Z,98342.05
2024-01-17T09:56:36.099Z,98346.23
2024-01-17T09:57:35.332Z,98350.84
2024-01-17T09:58:34.653Z,98347.89
2024-01-17T09:59:36.842Z,98345.84
2024-01-17T10:00:35.404Z,98352.67
2024-01-17T10:01:36.035Z,98348.88
2024-01-17T10:02:36.130Z,98353.11
2024-01-17T10:03:36.271Z,98351.88
2024-01-17T10:04:34.858Z,98345.13
2024-01-17T10:05:37.198Z,98353.12
2024-01-17T10:06:35.364Z,98353.98
2024-01-17T10:07:34.643Z,98354.72
2024-01-17T10:08:35.336Z,98355.61
2024-01-17T10:09:34.664Z,98356.79
2024-01-17T10:10:34.703Z,98359.76
2024-01-17T10:11:34.834Z,98356.03
2024-01-17T10:12:34.826Z,98351.23
2024-01-17T10:13:35.284Z,98353.08
2024-01-17T10:14:35.286Z,98349.61
2024-01-17T10:15:39.459Z,98346.19
2024-01-17T10:16:36.109Z,98352.66
2024-01-17T10:17:36.223Z,98355.52
2024-01-17T10:18:36.275Z,98360.73
2024-01-17T10:19:36.321Z,98365.7
2024-01-17T10:20:36.185Z,98367.06
2024-01-17T10:21:36.170Z,98369.7
2024-01-17T10:22:36.306Z,98370.38
2024-01-17T10:23:37.800Z,98382.13
2024-01-17T10:24:36.986Z,98382.48
2024-01-17T10:25:39.839Z,98379.84
2024-01-17T10:26:36.528Z,98385.1
2024-01-17T10:27:36.536Z,98389.53
2024-01-17T10:28:36.511Z,98392.41
2024-01-17T10:29:40.768Z,98389.28
2024-01-17T10:30:37.770Z,98389.83
2024-01-17T10:31:40.587Z,98383.72
2024-01-17T10:32:38.223Z,98387.97
2024-01-17T10:33:37.918Z,98389.99
2024-01-17T10:34:38.431Z,98394.2
2024-01-17T10:35:37.777Z,98396.02
2024-01-17T10:36:42.383Z,98427.02
2024-01-17T10:37:39.096Z,98432.41
2024-01-17T10:38:39.311Z,98435.7
2024-01-17T10:39:39.860Z,98429.44
2024-01-17T10:40:39.075Z,98439.27
2024-01-17T10:41:51.478Z,98447.61
2024-01-17T10:42:43.427Z,98438.69
2024-01-17T10:43:56.610Z,98445.4
2024-01-17T10:44:48.355Z,98449.57
2024-01-17T10:45:48.285Z,98449.38
2024-01-17T10:46:49.005Z,98445.83
2024-01-17T10:47:48.472Z,98444
2024-01-17T10:48:48.574Z,98443.63
2024-01-17T10:49:48.399Z,98446.22
2024-01-17T10:50:48.383Z,98448.8
2024-01-17T10:52:51.677Z,98456.56
2024-01-17T10:53:55.749Z,98455.08
2024-01-17T10:55:03.592Z,98457.19
2024-01-17T10:55:55.493Z,98457.12
2024-01-17T10:56:55.858Z,98458.6
2024-01-17T10:57:58.348Z,98460.28
2024-01-17T10:58:56.348Z,98454.47
2024-01-17T10:59:57.105Z,98450.31
2024-01-17T11:00:55.773Z,98449.01
2024-01-17T11:01:55.383Z,98451.2
2024-01-17T11:02:55.528Z,98455
2024-01-17T11:03:57.469Z,98455.56
2024-01-17T11:04:56.586Z,98453.55
2024-01-17T11:05:56.048Z,98449.94
2024-01-17T11:06:55.741Z,98452.55
2024-01-17T11:07:56.212Z,98452.12
2024-01-17T11:08:58.416Z,98459.11
2024-01-17T11:09:56.817Z,98457.05
2024-01-17T11:10:56.475Z,98462.59
2024-01-17T11:11:57.822Z,98461.75
2024-01-17T11:12:56.027Z,98458.72
2024-01-17T11:13:56.412Z,98468.48
2024-01-17T11:14:56.420Z,98465.02
2024-01-17T11:15:56.052Z,98469.9
2024-01-17T11:16:56.365Z,98470.17
2024-01-17T11:17:57.499Z,98471.45
2024-01-17T11:19:00.793Z,98473.32
2024-01-17T11:19:57.701Z,98471.95
2024-01-17T11:20:58.555Z,98476.66
2024-01-17T11:21:58.243Z,98480.66
2024-01-17T11:22:58.281Z,98478.03
2024-01-17T11:24:01.812Z,98484.32
2024-01-17T11:27:09.606Z,98491.62
2024-01-17T11:28:15.701Z,98483.56
2024-01-17T11:29:16.463Z,98487.28
2024-01-17T11:31:21.481Z,98484.11
2024-01-17T11:33:15.622Z,98485.94
2024-01-17T11:34:16.121Z,98484.11
2024-01-17T11:37:30.729Z,98477.42
2024-01-17T11:38:30.958Z,98472.64
2024-01-17T11:39:27.771Z,98479.88
2024-01-17T11:40:27.752Z,98474.45
2024-01-17T11:41:28.916Z,98472.63
2024-01-17T11:42:27.866Z,98471.19
2024-01-17T11:43:31.007Z,98469.29
2024-01-17T11:44:27.890Z,98471.08
2024-01-17T11:45:28.513Z,98475.75
2024-01-17T11:46:27.727Z,98473.92
2024-01-17T11:47:27.758Z,98470.66
2024-01-17T11:48:29.061Z,98465.56
2024-01-17T11:49:40.348Z,98466.06
2024-01-17T11:50:32.154Z,98470.96
2024-01-17T11:51:34.722Z,98465.54
2024-01-17T11:52:35.935Z,98461.78
2024-01-17T11:53:33.380Z,98462.22
2024-01-17T11:54:32.867Z,98470.16
2024-01-17T11:55:32.771Z,98462.34
2024-01-17T11:56:32.962Z,98460.95
2024-01-17T11:57:32.959Z,98462.81